sensor_id;sensor_type;location;lat;lon;timestamp;temperature;humidity
25839;DHT22;13669;50.186;27.062;2022-10-15T00:00:51;8.20;99.90
25839;DHT22;13669;50.186;27.062;2022-10-15T00:03:18;8.20;99.90
25839;DHT22;13669;50.186;27.062;2022-10-15T00:05:46;8.10;98.30
25839;DHT22;13669;50.186;27.062;2022-10-15T00:08:13;8.10;99.90
25839;DHT22;13669;50.186;27.062;2022-10-15T00:10:40;8.00;99.90
25839;DHT22;13669;50.186;27.062;2022-10-15T00:13:08;7.90;99.90
25839;DHT22;13669;50.186;27.062;2022-10-15T00:15:36;7.90;99.90
25839;DHT22;13669;50.186;27.062;2022-10-15T00:18:04;7.80;99.90
25839;DHT22;13669;50.186;27.062;2022-10-15T00:20:31;7.70;99.90
25839;DHT22;13669;50.186;27.062;2022-10-15T00:22:58;7.70;99.90
25839;DHT22;13669;50.186;27.062;2022-10-15T00:25:26;7.60;99.90
25839;DHT22;13669;50.186;27.062;2022-10-15T00:27:54;7.60;99.90
25839;DHT22;13669;50.186;27.062;2022-10-15T00:30:21;7.50;99.90
25839;DHT22;13669;50.186;27.062;2022-10-15T00:32:49;7.50;99.90
25839;DHT22;13669;50.186;27.062;2022-10-15T00:35:16;7.50;99.90
25839;DHT22;13669;50.186;27.062;2022-10-15T00:37:44;7.40;99.90
25839;DHT22;13669;50.186;27.062;2022-10-15T00:40:12;7.40;99.90
25839;DHT22;13669;50.186;27.062;2022-10-15T00:42:41;7.30;99.90
25839;DHT22;13669;50.186;27.062;2022-10-15T00:45:11;7.30;99.90
25839;DHT22;13669;50.186;27.062;2022-10-15T00:47:40;7.30;99.90
25839;DHT22;13669;50.186;27.062;2022-10-15T00:50:14;7.20;99.90
25839;DHT22;13669;50.186;27.062;2022-10-15T00:55:25;7.20;99.90
25839;DHT22;13669;50.186;27.062;2022-10-15T00:57:54;7.20;99.90
25839;DHT22;13669;50.186;27.062;2022-10-15T01:00:22;7.20;99.90
25839;DHT22;13669;50.186;27.062;2022-10-15T01:02:50;7.20;99.90
25839;DHT22;13669;50.186;27.062;2022-10-15T01:05:18;7.20;99.90
25839;DHT22;13669;50.186;27.062;2022-10-15T01:07:46;7.20;99.90
25839;DHT22;13669;50.186;27.062;2022-10-15T01:10:13;7.20;99.90
25839;DHT22;13669;50.186;27.062;2022-10-15T01:13:13;7.20;99.90
25839;DHT22;13669;50.186;27.062;2022-10-15T01:19:01;7.20;99.90
25839;DHT22;13669;50.186;27.062;2022-10-15T01:25:08;7.10;99.90
25839;DHT22;13669;50.186;27.062;2022-10-15T01:27:41;7.10;99.90
25839;DHT22;13669;50.186;27.062;2022-10-15T01:30:19;7.00;99.90
25839;DHT22;13669;50.186;27.062;2022-10-15T01:38:09;7.00;99.90
25839;DHT22;13669;50.186;27.062;2022-10-15T01:46:44;7.20;99.90
25839;DHT22;13669;50.186;27.062;2022-10-15T01:49:15;7.20;99.90
25839;DHT22;13669;50.186;27.062;2022-10-15T01:51:48;7.30;99.90
25839;DHT22;13669;50.186;27.062;2022-10-15T01:54:18;7.30;99.90
25839;DHT22;13669;50.186;27.062;2022-10-15T01:56:48;7.30;99.90
25839;DHT22;13669;50.186;27.062;2022-10-15T01:59:26;7.30;99.90
25839;DHT22;13669;50.186;27.062;2022-10-15T02:01:55;7.30;99.90
25839;DHT22;13669;50.186;27.062;2022-10-15T02:04:26;7.40;99.90
25839;DHT22;13669;50.186;27.062;2022-10-15T02:07:22;7.30;99.90
25839;DHT22;13669;50.186;27.062;2022-10-15T02:10:27;7.30;99.90
25839;DHT22;13669;50.186;27.062;2022-10-15T02:13:14;7.30;99.90
25839;DHT22;13669;50.186;27.062;2022-10-15T02:21:47;7.40;99.90
25839;DHT22;13669;50.186;27.062;2022-10-15T02:24:50;7.40;99.90
25839;DHT22;13669;50.186;27.062;2022-10-15T02:27:22;7.50;99.90
25839;DHT22;13669;50.186;27.062;2022-10-15T02:29:51;7.50;94.20
25839;DHT22;13669;50.186;27.062;2022-10-15T02:32:20;7.40;92.70
25839;DHT22;13669;50.186;27.062;2022-10-15T02:34:49;7.40;79.00
25839;DHT22;13669;50.186;27.062;2022-10-15T02:37:21;7.50;76.50
25839;DHT22;13669;50.186;27.062;2022-10-15T02:39:49;7.40;64.70
25839;DHT22;13669;50.186;27.062;2022-10-15T02:42:17;7.40;47.20
25839;DHT22;13669;50.186;27.062;2022-10-15T02:44:45;7.40;54.70
25839;DHT22;13669;50.186;27.062;2022-10-15T02:47:13;7.40;43.80
25839;DHT22;13669;50.186;27.062;2022-10-15T02:49:40;7.40;38.80
25839;DHT22;13669;50.186;27.062;2022-10-15T02:52:08;7.40;41.40
25839;DHT22;13669;50.186;27.062;2022-10-15T02:54:35;7.30;39.80
25839;DHT22;13669;50.186;27.062;2022-10-15T02:57:03;7.30;29.10
25839;DHT22;13669;50.186;27.062;2022-10-15T02:59:30;7.30;26.10
25839;DHT22;13669;50.186;27.062;2022-10-15T03:01:57;7.20;43.60
25839;DHT22;13669;50.186;27.062;2022-10-15T03:04:25;7.20;25.00
25839;DHT22;13669;50.186;27.062;2022-10-15T03:06:52;7.20;34.20
25839;DHT22;13669;50.186;27.062;2022-10-15T03:09:20;7.20;29.60
25839;DHT22;13669;50.186;27.062;2022-10-15T03:11:47;7.20;23.20
25839;DHT22;13669;50.186;27.062;2022-10-15T03:14:15;7.20;18.30
25839;DHT22;13669;50.186;27.062;2022-10-15T03:16:42;7.20;1.00
25839;DHT22;13669;50.186;27.062;2022-10-15T03:19:10;7.20;1.00
25839;DHT22;13669;50.186;27.062;2022-10-15T03:21:37;7.20;1.00
25839;DHT22;13669;50.186;27.062;2022-10-15T03:24:05;7.20;1.00
25839;DHT22;13669;50.186;27.062;2022-10-15T03:26:32;7.20;1.00
25839;DHT22;13669;50.186;27.062;2022-10-15T03:29:00;7.10;1.00
25839;DHT22;13669;50.186;27.062;2022-10-15T03:31:27;7.10;1.00
25839;DHT22;13669;50.186;27.062;2022-10-15T03:33:54;7.10;1.00
25839;DHT22;13669;50.186;27.062;2022-10-15T03:36:22;7.10;1.00
25839;DHT22;13669;50.186;27.062;2022-10-15T03:38:49;7.20;1.00
25839;DHT22;13669;50.186;27.062;2022-10-15T03:41:17;7.10;1.00
25839;DHT22;13669;50.186;27.062;2022-10-15T03:43:44;7.10;1.00
25839;DHT22;13669;50.186;27.062;2022-10-15T03:46:12;7.00;1.00
25839;DHT22;13669;50.186;27.062;2022-10-15T03:48:39;7.00;1.00
25839;DHT22;13669;50.186;27.062;2022-10-15T03:51:06;6.90;1.00
25839;DHT22;13669;50.186;27.062;2022-10-15T03:53:34;6.90;1.00
25839;DHT22;13669;50.186;27.062;2022-10-15T03:56:03;6.90;1.00
25839;DHT22;13669;50.186;27.062;2022-10-15T03:58:30;6.90;1.00
25839;DHT22;13669;50.186;27.062;2022-10-15T04:00:58;6.90;1.00
25839;DHT22;13669;50.186;27.062;2022-10-15T04:03:25;6.90;1.00
25839;DHT22;13669;50.186;27.062;2022-10-15T04:05:53;6.90;1.00
25839;DHT22;13669;50.186;27.062;2022-10-15T04:08:22;6.90;1.00
25839;DHT22;13669;50.186;27.062;2022-10-15T04:10:50;6.90;1.00
25839;DHT22;13669;50.186;27.062;2022-10-15T04:13:17;6.90;1.00
25839;DHT22;13669;50.186;27.062;2022-10-15T04:15:45;6.90;1.00
25839;DHT22;13669;50.186;27.062;2022-10-15T04:18:12;6.90;99.90
25839;DHT22;13669;50.186;27.062;2022-10-15T04:20:40;6.80;99.90
25839;DHT22;13669;50.186;27.062;2022-10-15T04:23:09;6.80;99.90
25839;DHT22;13669;50.186;27.062;2022-10-15T04:25:36;6.80;99.90
25839;DHT22;13669;50.186;27.062;2022-10-15T04:28:04;6.90;99.90
25839;DHT22;13669;50.186;27.062;2022-10-15T04:30:31;6.80;99.90
25839;DHT22;13669;50.186;27.062;2022-10-15T04:32:59;6.70;99.90
25839;DHT22;13669;50.186;27.062;2022-10-15T04:35:26;6.70;99.90
25839;DHT22;13669;50.186;27.062;2022-10-15T04:37:56;6.70;99.90
25839;DHT22;13669;50.186;27.062;2022-10-15T04:40:24;6.70;99.90
25839;DHT22;13669;50.186;27.062;2022-10-15T04:42:52;6.70;99.90
25839;DHT22;13669;50.186;27.062;2022-10-15T04:45:19;6.70;99.90
25839;DHT22;13669;50.186;27.062;2022-10-15T04:47:47;6.60;99.90
25839;DHT22;13669;50.186;27.062;2022-10-15T04:50:14;6.60;99.90
25839;DHT22;13669;50.186;27.062;2022-10-15T04:52:42;6.60;99.90
25839;DHT22;13669;50.186;27.062;2022-10-15T04:55:09;6.60;99.90
25839;DHT22;13669;50.186;27.062;2022-10-15T04:57:37;6.60;99.90
25839;DHT22;13669;50.186;27.062;2022-10-15T05:00:05;6.50;99.90
25839;DHT22;13669;50.186;27.062;2022-10-15T05:02:32;6.50;99.90
25839;DHT22;13669;50.186;27.062;2022-10-15T05:05:00;6.60;99.90
25839;DHT22;13669;50.186;27.062;2022-10-15T05:07:27;6.60;99.90
25839;DHT22;13669;50.186;27.062;2022-10-15T05:09:55;6.60;3.90
25839;DHT22;13669;50.186;27.062;2022-10-15T05:12:22;6.60;1.00
25839;DHT22;13669;50.186;27.062;2022-10-15T05:14:50;6.60;22.20
25839;DHT22;13669;50.186;27.062;2022-10-15T05:17:17;6.60;1.00
25839;DHT22;13669;50.186;27.062;2022-10-15T05:19:45;6.60;1.00
25839;DHT22;13669;50.186;27.062;2022-10-15T05:22:12;6.60;1.00
25839;DHT22;13669;50.186;27.062;2022-10-15T05:24:39;6.60;1.00
25839;DHT22;13669;50.186;27.062;2022-10-15T05:27:07;6.70;1.00
25839;DHT22;13669;50.186;27.062;2022-10-15T05:29:34;6.70;1.00
25839;DHT22;13669;50.186;27.062;2022-10-15T05:32:02;6.70;1.00
25839;DHT22;13669;50.186;27.062;2022-10-15T05:34:29;6.80;99.90
25839;DHT22;13669;50.186;27.062;2022-10-15T05:36:56;6.80;99.90
25839;DHT22;13669;50.186;27.062;2022-10-15T05:39:24;6.90;99.90
25839;DHT22;13669;50.186;27.062;2022-10-15T05:41:51;6.90;99.90
25839;DHT22;13669;50.186;27.062;2022-10-15T05:44:19;6.90;99.90
25839;DHT22;13669;50.186;27.062;2022-10-15T05:46:47;7.00;23.40
25839;DHT22;13669;50.186;27.062;2022-10-15T05:49:14;7.00;10.80
25839;DHT22;13669;50.186;27.062;2022-10-15T05:51:41;7.10;1.00
25839;DHT22;13669;50.186;27.062;2022-10-15T05:54:09;7.10;1.00
25839;DHT22;13669;50.186;27.062;2022-10-15T05:56:36;7.10;1.00
25839;DHT22;13669;50.186;27.062;2022-10-15T05:59:04;7.30;1.00
25839;DHT22;13669;50.186;27.062;2022-10-15T06:01:31;7.30;1.00
25839;DHT22;13669;50.186;27.062;2022-10-15T06:03:59;7.40;99.90
25839;DHT22;13669;50.186;27.062;2022-10-15T06:06:26;7.50;99.90
25839;DHT22;13669;50.186;27.062;2022-10-15T06:08:54;7.50;99.20
25839;DHT22;13669;50.186;27.062;2022-10-15T06:11:22;7.60;1.00
25839;DHT22;13669;50.186;27.062;2022-10-15T06:13:49;7.60;1.00
25839;DHT22;13669;50.186;27.062;2022-10-15T06:16:17;7.70;1.00
25839;DHT22;13669;50.186;27.062;2022-10-15T06:18:53;7.80;99.90
25839;DHT22;13669;50.186;27.062;2022-10-15T06:21:20;7.80;99.90
25839;DHT22;13669;50.186;27.062;2022-10-15T06:23:48;7.90;99.90
25839;DHT22;13669;50.186;27.062;2022-10-15T06:26:15;8.00;94.60
25839;DHT22;13669;50.186;27.062;2022-10-15T06:28:43;8.10;1.00
25839;DHT22;13669;50.186;27.062;2022-10-15T06:31:10;8.20;48.40
25839;DHT22;13669;50.186;27.062;2022-10-15T06:33:38;8.30;6.50
25839;DHT22;13669;50.186;27.062;2022-10-15T06:36:07;8.30;99.90
25839;DHT22;13669;50.186;27.062;2022-10-15T06:38:35;8.40;1.00
25839;DHT22;13669;50.186;27.062;2022-10-15T06:41:04;8.40;1.00
25839;DHT22;13669;50.186;27.062;2022-10-15T06:43:32;8.50;99.90
25839;DHT22;13669;50.186;27.062;2022-10-15T06:46:03;8.60;99.90
25839;DHT22;13669;50.186;27.062;2022-10-15T06:48:31;8.60;99.90
25839;DHT22;13669;50.186;27.062;2022-10-15T06:51:00;8.60;99.90
25839;DHT22;13669;50.186;27.062;2022-10-15T06:53:28;8.70;99.90
25839;DHT22;13669;50.186;27.062;2022-10-15T06:56:01;8.80;99.90
25839;DHT22;13669;50.186;27.062;2022-10-15T06:58:29;8.80;85.70
25839;DHT22;13669;50.186;27.062;2022-10-15T07:01:01;8.90;30.50
25839;DHT22;13669;50.186;27.062;2022-10-15T07:03:29;9.00;57.40
25839;DHT22;13669;50.186;27.062;2022-10-15T07:06:01;9.10;1.00
25839;DHT22;13669;50.186;27.062;2022-10-15T07:08:29;9.20;1.80
25839;DHT22;13669;50.186;27.062;2022-10-15T07:10:57;9.10;1.00
25839;DHT22;13669;50.186;27.062;2022-10-15T07:13:24;9.10;99.90
25839;DHT22;13669;50.186;27.062;2022-10-15T07:15:52;9.30;1.00
25839;DHT22;13669;50.186;27.062;2022-10-15T07:18:22;9.30;99.90
25839;DHT22;13669;50.186;27.062;2022-10-15T07:20:49;9.30;1.00
25839;DHT22;13669;50.186;27.062;2022-10-15T07:23:17;9.40;21.80
25839;DHT22;13669;50.186;27.062;2022-10-15T07:25:44;9.50;1.00
25839;DHT22;13669;50.186;27.062;2022-10-15T07:28:12;9.60;1.00
25839;DHT22;13669;50.186;27.062;2022-10-15T07:30:39;9.70;1.00
25839;DHT22;13669;50.186;27.062;2022-10-15T07:33:06;9.80;99.90
25839;DHT22;13669;50.186;27.062;2022-10-15T07:35:36;9.90;99.90
25839;DHT22;13669;50.186;27.062;2022-10-15T07:38:03;10.00;1.00
25839;DHT22;13669;50.186;27.062;2022-10-15T07:40:31;10.00;1.00
25839;DHT22;13669;50.186;27.062;2022-10-15T07:42:58;10.00;1.00
25839;DHT22;13669;50.186;27.062;2022-10-15T07:45:28;10.10;1.00
25839;DHT22;13669;50.186;27.062;2022-10-15T07:47:56;10.20;18.80
25839;DHT22;13669;50.186;27.062;2022-10-15T07:50:23;10.20;1.00
25839;DHT22;13669;50.186;27.062;2022-10-15T07:52:56;10.30;1.00
25839;DHT22;13669;50.186;27.062;2022-10-15T07:55:23;10.50;99.90
25839;DHT22;13669;50.186;27.062;2022-10-15T07:57:51;10.60;99.90
25839;DHT22;13669;50.186;27.062;2022-10-15T08:00:22;10.70;99.90
25839;DHT22;13669;50.186;27.062;2022-10-15T08:02:49;10.80;99.90
25839;DHT22;13669;50.186;27.062;2022-10-15T08:05:17;10.80;1.00
25839;DHT22;13669;50.186;27.062;2022-10-15T08:07:44;10.80;99.90
25839;DHT22;13669;50.186;27.062;2022-10-15T08:10:12;10.90;99.90
25839;DHT22;13669;50.186;27.062;2022-10-15T08:12:39;11.10;17.70
25839;DHT22;13669;50.186;27.062;2022-10-15T08:15:07;11.10;1.00
25839;DHT22;13669;50.186;27.062;2022-10-15T08:17:35;11.20;99.90
25839;DHT22;13669;50.186;27.062;2022-10-15T08:20:02;11.30;17.90
25839;DHT22;13669;50.186;27.062;2022-10-15T08:22:31;11.20;1.00
25839;DHT22;13669;50.186;27.062;2022-10-15T08:24:59;11.40;99.90
25839;DHT22;13669;50.186;27.062;2022-10-15T08:27:26;11.60;99.90
25839;DHT22;13669;50.186;27.062;2022-10-15T08:29:54;11.60;2.80
25839;DHT22;13669;50.186;27.062;2022-10-15T08:32:21;11.70;1.00
25839;DHT22;13669;50.186;27.062;2022-10-15T08:34:49;11.70;1.00
25839;DHT22;13669;50.186;27.062;2022-10-15T08:37:16;11.80;1.00
25839;DHT22;13669;50.186;27.062;2022-10-15T08:39:43;11.90;1.00
25839;DHT22;13669;50.186;27.062;2022-10-15T08:42:27;12.00;99.90
25839;DHT22;13669;50.186;27.062;2022-10-15T08:45:00;12.00;1.00
25839;DHT22;13669;50.186;27.062;2022-10-15T08:47:36;12.00;1.00
25839;DHT22;13669;50.186;27.062;2022-10-15T08:52:48;12.40;1.00
25839;DHT22;13669;50.186;27.062;2022-10-15T08:55:19;12.50;73.70
25839;DHT22;13669;50.186;27.062;2022-10-15T08:58:19;12.60;99.90
25839;DHT22;13669;50.186;27.062;2022-10-15T09:00:49;12.80;23.90
25839;DHT22;13669;50.186;27.062;2022-10-15T09:06:27;13.00;99.90
25839;DHT22;13669;50.186;27.062;2022-10-15T09:12:08;12.90;99.90
25839;DHT22;13669;50.186;27.062;2022-10-15T09:14:43;13.00;99.90
25839;DHT22;13669;50.186;27.062;2022-10-15T09:17:23;13.10;99.90
25839;DHT22;13669;50.186;27.062;2022-10-15T09:19:54;13.20;99.90
25839;DHT22;13669;50.186;27.062;2022-10-15T09:22:25;13.20;99.90
25839;DHT22;13669;50.186;27.062;2022-10-15T09:24:54;13.20;70.00
25839;DHT22;13669;50.186;27.062;2022-10-15T09:27:36;13.30;97.60
25839;DHT22;13669;50.186;27.062;2022-10-15T09:35:41;13.60;1.00
25839;DHT22;13669;50.186;27.062;2022-10-15T09:38:24;13.70;1.00
25839;DHT22;13669;50.186;27.062;2022-10-15T09:43:49;14.00;1.00
25839;DHT22;13669;50.186;27.062;2022-10-15T09:46:17;13.80;1.00
25839;DHT22;13669;50.186;27.062;2022-10-15T09:49:00;13.80;1.00
25839;DHT22;13669;50.186;27.062;2022-10-15T09:51:43;13.80;99.90
25839;DHT22;13669;50.186;27.062;2022-10-15T09:57:08;13.70;99.90
25839;DHT22;13669;50.186;27.062;2022-10-15T09:59:36;13.80;99.90
25839;DHT22;13669;50.186;27.062;2022-10-15T10:02:17;13.90;99.90
25839;DHT22;13669;50.186;27.062;2022-10-15T10:04:45;14.10;99.90
25839;DHT22;13669;50.186;27.062;2022-10-15T10:07:35;14.00;99.90
25839;DHT22;13669;50.186;27.062;2022-10-15T10:10:20;14.00;99.90
25839;DHT22;13669;50.186;27.062;2022-10-15T10:12:48;14.10;99.90
25839;DHT22;13669;50.186;27.062;2022-10-15T10:17:56;14.50;99.90
25839;DHT22;13669;50.186;27.062;2022-10-15T10:20:30;14.50;99.90
25839;DHT22;13669;50.186;27.062;2022-10-15T10:23:00;14.60;99.90
25839;DHT22;13669;50.186;27.062;2022-10-15T10:25:29;14.60;99.90
25839;DHT22;13669;50.186;27.062;2022-10-15T10:35:56;14.60;99.90
25839;DHT22;13669;50.186;27.062;2022-10-15T10:38:34;14.60;99.90
25839;DHT22;13669;50.186;27.062;2022-10-15T10:41:10;14.80;99.90
25839;DHT22;13669;50.186;27.062;2022-10-15T10:43:39;14.90;99.90
25839;DHT22;13669;50.186;27.062;2022-10-15T10:48:43;15.30;99.90
25839;DHT22;13669;50.186;27.062;2022-10-15T10:51:26;15.30;99.90
25839;DHT22;13669;50.186;27.062;2022-10-15T10:53:57;15.40;99.90
25839;DHT22;13669;50.186;27.062;2022-10-15T10:56:40;15.60;95.20
25839;DHT22;13669;50.186;27.062;2022-10-15T10:59:15;15.70;99.90
25839;DHT22;13669;50.186;27.062;2022-10-15T11:01:46;16.20;90.40
25839;DHT22;13669;50.186;27.062;2022-10-15T11:04:22;16.80;63.50
25839;DHT22;13669;50.186;27.062;2022-10-15T11:07:03;17.00;2.20
25839;DHT22;13669;50.186;27.062;2022-10-15T11:23:31;21.20;1.00
25839;DHT22;13669;50.186;27.062;2022-10-15T11:46:41;22.50;1.00
25839;DHT22;13669;50.186;27.062;2022-10-15T11:55:35;21.20;1.00
25839;DHT22;13669;50.186;27.062;2022-10-15T11:58:20;21.20;1.00
25839;DHT22;13669;50.186;27.062;2022-10-15T12:00:50;21.70;1.00
25839;DHT22;13669;50.186;27.062;2022-10-15T12:03:26;21.60;99.90
25839;DHT22;13669;50.186;27.062;2022-10-15T12:06:05;21.60;99.90
25839;DHT22;13669;50.186;27.062;2022-10-15T12:08:36;21.70;99.90
25839;DHT22;13669;50.186;27.062;2022-10-15T12:14:01;23.70;99.90
25839;DHT22;13669;50.186;27.062;2022-10-15T12:16:54;23.40;99.90
25839;DHT22;13669;50.186;27.062;2022-10-15T12:19:38;22.90;99.90
25839;DHT22;13669;50.186;27.062;2022-10-15T12:22:09;23.90;99.90
25839;DHT22;13669;50.186;27.062;2022-10-15T12:27:24;22.70;99.90
25839;DHT22;13669;50.186;27.062;2022-10-15T12:32:28;23.20;99.90
25839;DHT22;13669;50.186;27.062;2022-10-15T12:35:01;22.40;99.90
25839;DHT22;13669;50.186;27.062;2022-10-15T12:37:33;22.40;99.90
25839;DHT22;13669;50.186;27.062;2022-10-15T12:43:23;22.20;99.90
25839;DHT22;13669;50.186;27.062;2022-10-15T12:45:54;22.90;99.90
25839;DHT22;13669;50.186;27.062;2022-10-15T12:53:52;22.70;99.90
25839;DHT22;13669;50.186;27.062;2022-10-15T12:56:23;22.40;99.90
25839;DHT22;13669;50.186;27.062;2022-10-15T12:58:55;22.40;99.90
25839;DHT22;13669;50.186;27.062;2022-10-15T13:11:36;22.30;99.90
25839;DHT22;13669;50.186;27.062;2022-10-15T13:17:01;22.40;99.90
25839;DHT22;13669;50.186;27.062;2022-10-15T13:19:36;22.60;99.90
25839;DHT22;13669;50.186;27.062;2022-10-15T13:22:18;23.20;99.90
25839;DHT22;13669;50.186;27.062;2022-10-15T13:24:46;24.10;99.90
25839;DHT22;13669;50.186;27.062;2022-10-15T13:32:30;24.90;99.90
25839;DHT22;13669;50.186;27.062;2022-10-15T13:35:08;24.20;99.90
25839;DHT22;13669;50.186;27.062;2022-10-15T13:37:39;23.50;99.90
25839;DHT22;13669;50.186;27.062;2022-10-15T13:40:15;22.50;99.90
25839;DHT22;13669;50.186;27.062;2022-10-15T13:45:25;21.90;99.90
25839;DHT22;13669;50.186;27.062;2022-10-15T13:47:53;22.00;99.90
25839;DHT22;13669;50.186;27.062;2022-10-15T13:52:56;23.70;99.90
25839;DHT22;13669;50.186;27.062;2022-10-15T13:55:32;23.80;99.90
25839;DHT22;13669;50.186;27.062;2022-10-15T13:58:23;23.60;99.90
25839;DHT22;13669;50.186;27.062;2022-10-15T14:01:16;23.30;99.90
25839;DHT22;13669;50.186;27.062;2022-10-15T14:03:52;22.60;99.90
25839;DHT22;13669;50.186;27.062;2022-10-15T14:08:49;22.10;99.90
25839;DHT22;13669;50.186;27.062;2022-10-15T14:11:17;22.40;99.90
25839;DHT22;13669;50.186;27.062;2022-10-15T14:13:51;22.30;99.90
25839;DHT22;13669;50.186;27.062;2022-10-15T14:16:20;21.90;99.90
25839;DHT22;13669;50.186;27.062;2022-10-15T14:18:56;22.50;99.90
25839;DHT22;13669;50.186;27.062;2022-10-15T14:21:25;23.10;99.90
25839;DHT22;13669;50.186;27.062;2022-10-15T14:24:06;23.20;99.90
25839;DHT22;13669;50.186;27.062;2022-10-15T14:26:38;23.50;99.90
25839;DHT22;13669;50.186;27.062;2022-10-15T14:29:15;23.40;99.90
25839;DHT22;13669;50.186;27.062;2022-10-15T14:31:47;23.60;99.90
25839;DHT22;13669;50.186;27.062;2022-10-15T14:34:45;23.20;99.90
25839;DHT22;13669;50.186;27.062;2022-10-15T14:37:39;22.40;99.90
25839;DHT22;13669;50.186;27.062;2022-10-15T14:47:47;21.80;99.90
25839;DHT22;13669;50.186;27.062;2022-10-15T14:50:16;21.20;99.90
25839;DHT22;13669;50.186;27.062;2022-10-15T14:52:49;21.00;99.90
25839;DHT22;13669;50.186;27.062;2022-10-15T14:57:51;20.10;99.90
25839;DHT22;13669;50.186;27.062;2022-10-15T15:00:25;19.80;99.90
25839;DHT22;13669;50.186;27.062;2022-10-15T15:02:57;19.50;99.90
25839;DHT22;13669;50.186;27.062;2022-10-15T15:05:26;18.80;99.90
25839;DHT22;13669;50.186;27.062;2022-10-15T15:07:55;18.50;99.90
25839;DHT22;13669;50.186;27.062;2022-10-15T15:10:25;18.20;99.90
25839;DHT22;13669;50.186;27.062;2022-10-15T15:12:55;17.90;99.90
25839;DHT22;13669;50.186;27.062;2022-10-15T15:15:24;17.60;99.90
25839;DHT22;13669;50.186;27.062;2022-10-15T15:17:53;17.20;99.90
25839;DHT22;13669;50.186;27.062;2022-10-15T15:20:21;16.60;99.90
25839;DHT22;13669;50.186;27.062;2022-10-15T15:22:53;16.20;99.90
25839;DHT22;13669;50.186;27.062;2022-10-15T15:25:31;15.70;99.90
25839;DHT22;13669;50.186;27.062;2022-10-15T15:28:02;15.30;99.90
25839;DHT22;13669;50.186;27.062;2022-10-15T15:30:30;15.00;99.90
25839;DHT22;13669;50.186;27.062;2022-10-15T15:33:00;14.80;99.90
25839;DHT22;13669;50.186;27.062;2022-10-15T15:35:49;14.60;99.90
25839;DHT22;13669;50.186;27.062;2022-10-15T15:38:19;14.40;99.90
25839;DHT22;13669;50.186;27.062;2022-10-15T15:40:47;14.20;99.90
25839;DHT22;13669;50.186;27.062;2022-10-15T15:43:17;14.10;99.90
25839;DHT22;13669;50.186;27.062;2022-10-15T15:45:45;14.10;99.90
25839;DHT22;13669;50.186;27.062;2022-10-15T15:48:13;14.00;99.90
25839;DHT22;13669;50.186;27.062;2022-10-15T15:50:40;13.90;99.90
25839;DHT22;13669;50.186;27.062;2022-10-15T15:53:10;13.70;99.90
25839;DHT22;13669;50.186;27.062;2022-10-15T15:55:38;13.60;99.90
25839;DHT22;13669;50.186;27.062;2022-10-15T15:58:05;13.50;99.90
25839;DHT22;13669;50.186;27.062;2022-10-15T16:00:33;13.40;99.90
25839;DHT22;13669;50.186;27.062;2022-10-15T16:03:00;13.30;99.90
25839;DHT22;13669;50.186;27.062;2022-10-15T16:05:27;13.30;99.90
25839;DHT22;13669;50.186;27.062;2022-10-15T16:07:55;13.20;99.90
25839;DHT22;13669;50.186;27.062;2022-10-15T16:10:22;13.20;99.90
25839;DHT22;13669;50.186;27.062;2022-10-15T16:12:50;13.20;99.90
25839;DHT22;13669;50.186;27.062;2022-10-15T16:15:17;13.00;99.90
25839;DHT22;13669;50.186;27.062;2022-10-15T16:17:45;13.00;1.00
25839;DHT22;13669;50.186;27.062;2022-10-15T16:20:12;12.90;1.00
25839;DHT22;13669;50.186;27.062;2022-10-15T16:22:40;12.80;1.00
25839;DHT22;13669;50.186;27.062;2022-10-15T16:25:09;12.70;1.00
25839;DHT22;13669;50.186;27.062;2022-10-15T16:27:36;12.70;1.00
25839;DHT22;13669;50.186;27.062;2022-10-15T16:30:04;12.60;1.00
25839;DHT22;13669;50.186;27.062;2022-10-15T16:32:32;12.60;1.00
25839;DHT22;13669;50.186;27.062;2022-10-15T16:34:59;12.50;1.00
25839;DHT22;13669;50.186;27.062;2022-10-15T16:37:27;12.50;1.00
25839;DHT22;13669;50.186;27.062;2022-10-15T16:39:54;12.50;1.00
25839;DHT22;13669;50.186;27.062;2022-10-15T16:42:22;12.40;1.00
25839;DHT22;13669;50.186;27.062;2022-10-15T16:44:49;12.40;1.00
25839;DHT22;13669;50.186;27.062;2022-10-15T16:47:18;12.30;1.00
25839;DHT22;13669;50.186;27.062;2022-10-15T16:49:47;12.30;1.00
25839;DHT22;13669;50.186;27.062;2022-10-15T16:52:14;12.20;1.00
25839;DHT22;13669;50.186;27.062;2022-10-15T16:54:42;12.10;1.00
25839;DHT22;13669;50.186;27.062;2022-10-15T16:57:09;12.10;1.00
25839;DHT22;13669;50.186;27.062;2022-10-15T16:59:37;12.00;1.00
25839;DHT22;13669;50.186;27.062;2022-10-15T17:02:04;12.00;1.00
25839;DHT22;13669;50.186;27.062;2022-10-15T17:04:32;11.90;1.00
25839;DHT22;13669;50.186;27.062;2022-10-15T17:06:59;11.90;1.00
25839;DHT22;13669;50.186;27.062;2022-10-15T17:09:27;11.90;1.00
25839;DHT22;13669;50.186;27.062;2022-10-15T17:11:54;11.90;1.00
25839;DHT22;13669;50.186;27.062;2022-10-15T17:14:22;11.80;1.00
25839;DHT22;13669;50.186;27.062;2022-10-15T17:16:51;11.80;1.00
25839;DHT22;13669;50.186;27.062;2022-10-15T17:19:21;11.70;1.00
25839;DHT22;13669;50.186;27.062;2022-10-15T17:21:50;11.70;1.00
25839;DHT22;13669;50.186;27.062;2022-10-15T17:24:18;11.60;1.00
25839;DHT22;13669;50.186;27.062;2022-10-15T17:26:46;11.60;1.00
25839;DHT22;13669;50.186;27.062;2022-10-15T17:29:16;11.60;1.00
25839;DHT22;13669;50.186;27.062;2022-10-15T17:31:48;11.50;1.00
25839;DHT22;13669;50.186;27.062;2022-10-15T17:34:15;11.40;1.00
25839;DHT22;13669;50.186;27.062;2022-10-15T17:36:45;11.40;1.00
25839;DHT22;13669;50.186;27.062;2022-10-15T17:39:16;11.30;15.90
25839;DHT22;13669;50.186;27.062;2022-10-15T17:41:44;11.30;20.20
25839;DHT22;13669;50.186;27.062;2022-10-15T17:44:11;11.30;20.80
25839;DHT22;13669;50.186;27.062;2022-10-15T17:46:39;11.30;21.40
25839;DHT22;13669;50.186;27.062;2022-10-15T17:49:08;11.20;22.40
25839;DHT22;13669;50.186;27.062;2022-10-15T17:51:37;11.20;44.30
25839;DHT22;13669;50.186;27.062;2022-10-15T17:54:05;11.20;41.60
25839;DHT22;13669;50.186;27.062;2022-10-15T17:56:35;11.10;37.70
25839;DHT22;13669;50.186;27.062;2022-10-15T17:59:06;11.10;57.70
25839;DHT22;13669;50.186;27.062;2022-10-15T18:01:41;11.00;97.90
25839;DHT22;13669;50.186;27.062;2022-10-15T18:04:25;11.00;79.50
25839;DHT22;13669;50.186;27.062;2022-10-15T18:06:53;11.00;99.90
25839;DHT22;13669;50.186;27.062;2022-10-15T18:09:20;10.90;99.90
25839;DHT22;13669;50.186;27.062;2022-10-15T18:11:48;10.90;99.90
25839;DHT22;13669;50.186;27.062;2022-10-15T18:14:15;10.80;99.90
25839;DHT22;13669;50.186;27.062;2022-10-15T18:16:43;10.80;99.90
25839;DHT22;13669;50.186;27.062;2022-10-15T18:19:10;10.80;99.90
25839;DHT22;13669;50.186;27.062;2022-10-15T18:21:38;10.80;99.90